Time;durP1;ratioP1;P1;durP2;ratioP2;P2;SDS_P1;SDS_P2;PMS_P1;PMS_P2;Temp;Humidity;BMP_temperature;BMP_pressure;BME280_temperature;BME280_humidity;BME280_pressure;Samples;Min_cycle;Max_cycle;Signal;HPM_P1;HPM_P2
2022/08/31 00:05:24;;;;;;;6.28;4.45;;;;;;;17.79;66.02;98363.19;6242553;23;20016;-82
2022/08/31 00:07:51;;;;;;;4.45;4.10;;;;;;;17.83;65.96;98363.50;6242516;22;20020;-82
2022/08/31 00:10:26;;;;;;;5.03;4.47;;;;;;;17.63;65.61;98343.53;6242843;22;20026;-82
2022/08/31 00:13:00;;;;;;;4.72;4.30;;;;;;;17.60;65.80;98354.59;6243064;22;20488;-82
2022/08/31 00:15:29;;;;;;;5.67;4.40;;;;;;;17.63;65.85;98363.91;6241167;23;20627;-82
2022/08/31 00:17:56;;;;;;;4.82;4.32;;;;;;;17.55;66.39;98357.16;6242907;22;20246;-83
2022/08/31 00:20:26;;;;;;;6.57;4.68;;;;;;;17.53;66.65;98361.09;6242269;22;20024;-82
2022/08/31 00:23:08;;;;;;;5.00;4.50;;;;;;;17.49;66.76;98346.69;6242366;22;20022;-82
2022/08/31 00:25:38;;;;;;;4.70;4.30;;;;;;;17.54;66.64;98360.06;6241981;22;20575;-82
2022/08/31 00:28:06;;;;;;;4.35;3.95;;;;;;;17.48;66.63;98361.81;6242209;23;20074;-82
2022/08/31 00:30:34;;;;;;;4.95;4.50;;;;;;;17.38;66.67;98346.50;6242147;23;20016;-83
2022/08/31 00:33:02;;;;;;;4.93;4.53;;;;;;;17.38;66.78;98351.00;6242852;23;20460;-83
2022/08/31 00:35:37;;;;;;;4.38;3.97;;;;;;;17.42;67.21;98354.81;6243042;23;20428;-84
2022/08/31 00:38:05;;;;;;;5.15;3.80;;;;;;;17.39;67.31;98356.09;6215267;23;20024;-84
2022/08/31 00:40:34;;;;;;;6.25;3.95;;;;;;;17.42;67.38;98351.34;6243033;23;20020;-83
2022/08/31 00:43:31;;;;;;;4.97;3.85;;;;;;;17.39;67.63;98348.13;6217635;23;20662;-83
2022/08/31 00:45:58;;;;;;;4.63;4.22;;;;;;;17.34;67.27;98350.69;6242368;23;20016;-84
2022/08/31 00:48:25;;;;;;;4.05;3.75;;;;;;;17.44;67.22;98354.56;6242899;23;20091;-84
2022/08/31 00:50:54;;;;;;;4.20;3.80;;;;;;;17.34;67.48;98340.09;6215676;23;20024;-84
2022/08/31 00:53:22;;;;;;;4.07;3.47;;;;;;;17.33;67.62;98353.56;6236680;23;20376;-84
2022/08/31 00:56:08;;;;;;;4.38;3.97;;;;;;;17.27;68.03;98350.03;6242368;23;20370;-84
2022/08/31 00:58:36;;;;;;;5.15;4.45;;;;;;;17.22;67.77;98349.94;6242269;23;20020;-84
2022/08/31 01:01:07;;;;;;;5.32;4.65;;;;;;;17.08;68.10;98341.44;6242558;23;20062;-83
2022/08/31 01:03:34;;;;;;;3.63;3.33;;;;;;;17.18;68.43;98346.13;6216005;23;20099;-85
2022/08/31 01:06:02;;;;;;;2.50;2.30;;;;;;;17.30;68.11;98344.25;6243045;23;20017;-84
2022/08/31 01:08:30;;;;;;;3.22;2.70;;;;;;;17.41;68.61;98352.41;6242956;23;20020;-84
2022/08/31 01:10:59;;;;;;;2.80;2.50;;;;;;;17.38;68.21;98346.50;6242866;23;20016;-83
2022/08/31 01:13:26;;;;;;;2.60;2.40;;;;;;;17.41;68.47;98339.13;6217704;23;20070;-84
2022/08/31 01:16:01;;;;;;;2.60;2.40;;;;;;;17.41;68.28;98347.09;6245292;23;20020;-85
2022/08/31 01:18:32;;;;;;;2.83;2.25;;;;;;;17.44;68.16;98342.09;6216769;23;20026;-84
2022/08/31 01:21:31;;;;;;;3.30;3.00;;;;;;;17.54;68.25;98350.25;6244511;23;20016;-84
2022/08/31 01:24:01;;;;;;;4.45;3.75;;;;;;;17.42;68.52;98336.25;6244577;22;20021;-85
2022/08/31 01:26:31;;;;;;;3.40;3.10;;;;;;;17.46;68.51;98347.19;6244667;23;20074;-84
2022/08/31 01:29:03;;;;;;;2.50;2.30;;;;;;;17.48;68.66;98345.09;6244379;23;20519;-84
2022/08/31 01:31:39;;;;;;;3.35;3.05;;;;;;;17.47;68.00;98354.09;6245309;23;20024;-84
2022/08/31 01:34:06;;;;;;;3.50;3.20;;;;;;;17.43;68.15;98352.94;6244302;23;20095;-85
2022/08/31 01:36:36;;;;;;;4.25;3.85;;;;;;;17.42;67.82;98356.66;6244172;23;20086;-86
2022/08/31 01:39:05;;;;;;;3.80;3.50;;;;;;;17.36;67.25;98343.28;6217690;23;20027;-84
2022/08/31 01:41:32;;;;;;;3.50;3.10;;;;;;;17.42;67.45;98348.69;6218696;23;20023;-84
2022/08/31 01:43:59;;;;;;;2.83;2.47;;;;;;;17.47;67.66;98344.28;6244611;23;20020;-84
2022/08/31 01:46:26;;;;;;;3.25;2.95;;;;;;;17.48;67.34;98350.41;6243626;23;20511;-84
2022/08/31 01:48:53;;;;;;;4.85;4.25;;;;;;;17.37;66.74;98350.19;6243122;23;20016;-83
2022/08/31 01:51:22;;;;;;;3.50;3.20;;;;;;;17.51;67.06;98355.22;6243811;23;20016;-84
2022/08/31 01:53:52;;;;;;;4.00;3.53;;;;;;;17.43;67.31;98353.75;6212704;23;20361;-85
2022/08/31 01:56:46;;;;;;;3.40;3.05;;;;;;;17.46;67.15;98347.19;6221333;23;20039;-84
2022/08/31 01:59:30;;;;;;;3.67;3.17;;;;;;;17.48;67.12;98339.78;6244427;23;20023;-84
2022/08/31 02:01:56;;;;;;;4.00;3.70;;;;;;;17.47;67.16;98343.50;6243730;23;20345;-83
2022/08/31 02:04:27;;;;;;;3.80;3.47;;;;;;;17.42;67.36;98341.53;6216787;23;20023;-85
2022/08/31 02:06:59;;;;;;;2.75;2.55;;;;;;;17.53;67.44;98358.44;6243844;23;20047;-84
2022/08/31 02:09:26;;;;;;;4.47;3.75;;;;;;;17.30;67.37;98338.94;6218226;23;20016;-85
2022/08/31 02:11:53;;;;;;;5.20;4.70;;;;;;;17.19;67.70;98342.44;6243865;23;20023;-83
2022/08/31 02:14:21;;;;;;;3.55;3.25;;;;;;;17.32;67.54;98352.75;6218733;23;20016;-83
2022/08/31 02:16:48;;;;;;;4.18;3.72;;;;;;;17.34;67.98;98350.69;6245074;23;20441;-85
2022/08/31 02:19:15;;;;;;;3.15;2.72;;;;;;;17.39;68.26;98344.66;6243407;23;20509;-84
2022/08/31 02:21:42;;;;;;;3.60;3.20;;;;;;;17.42;67.67;98338.09;6243937;23;20020;-84
2022/08/31 02:24:12;;;;;;;3.00;2.67;;;;;;;17.43;67.69;98343.16;6217243;22;20662;-84
2022/08/31 02:26:40;;;;;;;2.80;2.60;;;;;;;17.53;67.34;98338.03;6217613;23;20044;-83
2022/08/31 02:29:07;;;;;;;2.50;2.30;;;;;;;17.52;67.25;98332.97;6243448;23;20027;-84
2022/08/31 02:31:36;;;;;;;3.65;2.58;;;;;;;17.52;66.93;98323.19;6243314;23;20016;-83
2022/08/31 02:34:03;;;;;;;2.70;2.50;;;;;;;17.58;66.96;98335.47;6243115;23;20012;-85
2022/08/31 02:36:31;;;;;;;2.90;2.60;;;;;;;17.57;67.12;98335.69;6244105;23;20445;-83
2022/08/31 02:39:01;;;;;;;;;;;;;;;17.59;67.01;98336.28;6244441;23;20020;-83
2022/08/31 02:41:28;;;;;;;4.45;2.55;;;;;;;17.52;67.14;98338.28;6216375;23;19942;-84
2022/08/31 02:43:54;;;;;;;3.28;2.97;;;;;;;17.44;67.45;98333.34;6243631;23;20016;-85
2022/08/31 02:46:21;;;;;;;2.80;2.60;;;;;;;17.48;67.91;98337.94;6243482;23;20477;-84
2022/08/31 02:48:48;;;;;;;2.78;2.22;;;;;;;17.55;67.48;98348.41;6243103;23;20082;-84
2022/08/31 02:51:15;;;;;;;2.67;2.38;;;;;;;17.53;67.91;98343.34;6243056;23;20023;-84
2022/08/31 02:53:41;;;;;;;2.80;2.60;;;;;;;17.56;67.82;98352.66;6239327;23;20023;-84
2022/08/31 02:56:27;;;;;;;3.30;2.97;;;;;;;17.38;67.32;98338.56;6220446;23;20035;-83
2022/08/31 02:59:08;;;;;;;3.15;2.85;;;;;;;17.39;68.22;98347.31;6243045;23;20095;-84
2022/08/31 03:01:36;;;;;;;2.45;2.22;;;;;;;17.33;68.24;98341.13;6215929;23;20500;-83
2022/08/31 03:04:04;;;;;;;2.95;2.75;;;;;;;17.19;68.28;98331.03;6243502;23;20156;-84
2022/08/31 03:06:31;;;;;;;2.50;2.30;;;;;;;17.31;68.53;98342.41;6243449;23;20042;-83
2022/08/31 03:09:01;;;;;;;3.15;2.85;;;;;;;17.22;68.60;98336.69;6243055;23;20020;-83
2022/08/31 03:11:28;;;;;;;3.73;3.37;;;;;;;17.17;68.73;98339.22;6243858;23;20077;-83
2022/08/31 03:13:55;;;;;;;2.88;2.65;;;;;;;17.17;69.22;98331.28;6242987;23;20700;-83
2022/08/31 03:16:25;;;;;;;3.30;3.00;;;;;;;17.19;69.45;98336.34;6216481;23;20104;-83
2022/08/31 03:18:52;;;;;;;2.95;2.75;;;;;;;17.16;69.57;98342.94;6216877;23;20035;-84
2022/08/31 03:21:19;;;;;;;2.40;2.20;;;;;;;17.12;69.15;98325.88;6243564;23;20343;-83
2022/08/31 03:23:45;;;;;;;2.70;2.50;;;;;;;17.11;69.07;98327.72;6242787;23;20429;-84
2022/08/31 03:26:12;;;;;;;3.53;3.08;;;;;;;17.07;69.71;98320.47;6242871;22;20027;-84
2022/08/31 03:28:39;;;;;;;3.22;2.63;;;;;;;17.09;69.22;98331.63;6243220;23;20127;-84
2022/08/31 03:31:08;;;;;;;2.60;2.40;;;;;;;17.15;68.99;98336.00;6242105;23;20437;-84
2022/08/31 03:33:36;;;;;;;2.88;2.60;;;;;;;17.17;69.43;98328.63;6242887;23;20058;-84
2022/08/31 03:36:04;;;;;;;2.70;2.50;;;;;;;17.16;69.58;98334.97;6243481;23;20016;-84
2022/08/31 03:38:31;;;;;;;2.83;2.55;;;;;;;17.16;69.45;98342.94;6243249;23;20016;-83
2022/08/31 03:41:01;;;;;;;3.08;2.78;;;;;;;17.11;69.48;98322.44;6217085;23;20436;-83
2022/08/31 03:43:28;;;;;;;2.45;2.25;;;;;;;17.13;69.60;98327.47;6243696;23;20504;-82
2022/08/31 03:45:56;;;;;;;2.90;2.67;;;;;;;17.09;69.13;98321.88;6216458;23;20070;-84
2022/08/31 03:48:23;;;;;;;3.65;3.28;;;;;;;17.04;69.34;98328.91;6216433;23;20055;-83
2022/08/31 03:50:49;;;;;;;3.20;2.90;;;;;;;17.10;69.42;98334.06;6242089;23;20322;-84
2022/08/31 03:53:17;;;;;;;3.72;3.20;;;;;;;17.06;69.53;98326.81;6237729;23;20035;-84
2022/08/31 03:56:08;;;;;;;3.33;3.03;;;;;;;17.16;69.35;98337.63;6242848;23;20106;-84
2022/08/31 03:58:37;;;;;;;3.88;3.47;;;;;;;17.14;69.64;98350.28;6215847;23;20026;-83
2022/08/31 04:01:06;;;;;;;4.10;3.80;;;;;;;17.06;69.08;98343.53;6216422;23;20019;-84
2022/08/31 04:03:34;;;;;;;3.38;3.08;;;;;;;17.12;69.72;98347.06;6242276;23;20016;-83
2022/08/31 04:06:08;;;;;;;2.97;2.65;;;;;;;17.15;69.54;98351.09;6217229;23;20070;-84
2022/08/31 04:08:36;;;;;;;2.95;2.72;;;;;;;17.21;69.48;98350.94;6242570;23;20071;-83
2022/08/31 04:11:14;;;;;;;3.97;3.58;;;;;;;17.12;69.31;98342.59;6243022;23;20393;-83
2022/08/31 04:13:41;;;;;;;3.10;2.80;;;;;;;17.07;69.72;98341.66;6242163;23;20062;-84
2022/08/31 04:16:11;;;;;;;3.10;2.80;;;;;;;17.08;69.96;98345.94;6215750;23;20016;-84
2022/08/31 04:18:40;;;;;;;3.25;2.90;;;;;;;17.15;69.73;98357.19;6242100;23;20020;-83
2022/08/31 04:21:18;;;;;;;3.58;3.28;;;;;;;17.16;69.86;98358.81;6242989;23;20020;-84
2022/08/31 04:23:47;;;;;;;4.40;4.00;;;;;;;17.05;68.96;98347.22;6241819;23;20020;-85
2022/08/31 04:26:22;;;;;;;4.05;3.67;;;;;;;17.05;69.65;98346.41;6242379;22;20158;-84
2022/08/31 04:28:50;;;;;;;3.17;2.88;;;;;;;17.15;70.22;98357.19;6215579;23;20016;-83
2022/08/31 04:31:19;;;;;;;2.58;2.38;;;;;;;17.18;70.21;98340.03;6242668;23;20442;-83
2022/08/31 04:33:46;;;;;;;4.80;3.50;;;;;;;17.12;68.64;98352.38;6216298;23;20016;-85
2022/08/31 04:36:17;;;;;;;3.67;3.33;;;;;;;17.13;70.05;98348.69;6215837;23;20012;-83
2022/08/31 04:38:47;;;;;;;3.40;3.10;;;;;;;17.18;69.51;98346.13;6215173;23;20023;-83
2022/08/31 04:41:18;;;;;;;3.08;2.78;;;;;;;17.23;69.28;98350.75;6242637;23;20016;-84
2022/08/31 04:43:52;;;;;;;3.35;3.05;;;;;;;17.20;68.93;98343.25;6242695;23;20016;-85
2022/08/31 04:46:21;;;;;;;3.53;3.22;;;;;;;17.20;69.61;98349.34;6241897;23;20020;-84
2022/08/31 04:48:49;;;;;;;3.35;3.05;;;;;;;17.22;69.91;98352.59;6242226;23;20043;-82
2022/08/31 04:51:22;;;;;;;4.05;3.65;;;;;;;17.13;68.70;98349.47;6242435;23;20016;-83
2022/08/31 04:53:50;;;;;;;3.33;3.03;;;;;;;17.17;69.26;98359.63;6213185;23;20468;-85
2022/08/31 04:56:41;;;;;;;5.60;5.00;;;;;;;17.03;68.46;98359.06;6219735;23;20035;-83
2022/08/31 04:59:11;;;;;;;3.92;3.53;;;;;;;17.15;68.43;98367.00;6242549;23;20070;-85
2022/08/31 05:01:45;;;;;;;3.72;3.40;;;;;;;17.05;69.40;98363.13;6241611;23;20016;-83
2022/08/31 05:04:15;;;;;;;3.95;3.65;;;;;;;17.11;68.85;98371.97;6189983;23;20472;-83
2022/08/31 05:06:44;;;;;;;2.88;2.67;;;;;;;17.11;69.90;98361.38;6215051;23;20090;-82
2022/08/31 05:09:17;;;;;;;4.55;4.15;;;;;;;17.08;68.66;98377.72;6242267;23;20020;-83
2022/08/31 05:11:46;;;;;;;3.63;3.33;;;;;;;17.12;69.20;98381.53;6241715;23;20350;-83
2022/08/31 05:14:12;;;;;;;3.30;3.00;;;;;;;17.08;68.99;98370.59;6242513;23;20043;-83
2022/08/31 05:16:41;;;;;;;4.18;3.78;;;;;;;17.17;68.34;98386.94;6215397;23;20020;-83
2022/08/31 05:19:08;;;;;;;3.35;3.00;;;;;;;17.25;68.81;98383.91;6215572;23;20070;-84
2022/08/31 05:21:39;;;;;;;4.30;3.90;;;;;;;17.16;68.60;98385.34;6241707;23;20020;-83
2022/08/31 05:24:21;;;;;;;3.20;2.90;;;;;;;17.30;69.42;98396.47;6242067;22;20330;-82
2022/08/31 05:26:51;;;;;;;3.95;3.50;;;;;;;17.26;68.97;98385.50;6241113;23;20016;-83
2022/08/31 05:29:23;;;;;;;3.80;3.40;;;;;;;17.18;69.31;98374.50;6214791;23;20317;-82
2022/08/31 05:31:50;;;;;;;3.70;3.22;;;;;;;17.25;68.81;98378.59;6242681;23;20016;-82
2022/08/31 05:34:20;;;;;;;3.22;2.95;;;;;;;17.39;69.15;98376.47;6241625;23;20121;-83
2022/08/31 05:36:55;;;;;;;3.55;2.83;;;;;;;17.46;68.65;98379.00;6240853;23;20023;-83
2022/08/31 05:39:22;;;;;;;3.58;3.28;;;;;;;17.44;68.03;98391.69;6241688;23;20012;-83
2022/08/31 05:41:49;;;;;;;3.17;2.88;;;;;;;17.46;68.49;98386.97;6242468;23;20455;-84
2022/08/31 05:44:19;;;;;;;3.78;3.20;;;;;;;17.51;69.02;98390.50;6215878;23;20017;-83
2022/08/31 05:46:48;;;;;;;2.80;2.60;;;;;;;17.62;68.90;98388.84;6215274;23;20023;-84
2022/08/31 05:49:23;;;;;;;3.60;3.30;;;;;;;17.69;68.48;98394.78;6241863;23;20030;-83
2022/08/31 05:51:53;;;;;;;3.70;3.30;;;;;;;17.69;67.48;98394.00;6241909;23;20043;-83
2022/08/31 05:54:20;;;;;;;4.07;3.67;;;;;;;17.73;67.36;98389.84;6237167;23;20070;-83
2022/08/31 05:56:47;;;;;;;4.85;3.47;;;;;;;17.78;67.48;98382.78;6242136;23;20012;-84
2022/08/31 05:59:14;;;;;;;4.30;3.90;;;;;;;17.81;67.91;98394.75;6243493;23;20016;-84
2022/08/31 06:01:41;;;;;;;3.72;3.40;;;;;;;17.85;67.31;98388.75;6244402;23;20020;-84
2022/08/31 06:04:09;;;;;;;4.20;3.80;;;;;;;17.87;67.73;98380.53;6217500;23;20012;-86
2022/08/31 06:06:37;;;;;;;3.33;3.03;;;;;;;17.90;68.03;98380.88;6217634;23;20024;-84
2022/08/31 06:09:06;;;;;;;4.00;3.53;;;;;;;17.95;67.00;98397.94;6245377;23;20334;-83
2022/08/31 06:11:37;;;;;;;4.50;4.07;;;;;;;17.84;66.05;98389.00;6244334;23;20071;-85
2022/08/31 06:14:04;;;;;;;4.43;4.03;;;;;;;17.97;67.66;98396.66;6218102;23;20334;-84
2022/08/31 06:16:32;;;;;;;4.35;3.95;;;;;;;17.98;66.48;98386.84;6217106;23;20093;-85
2022/08/31 06:19:02;;;;;;;4.57;4.05;;;;;;;17.96;66.57;98388.94;6217947;23;20016;-83
2022/08/31 06:21:32;;;;;;;3.80;3.50;;;;;;;18.25;67.62;98403.75;6244356;23;20020;-85
2022/08/31 06:24:03;;;;;;;4.97;4.57;;;;;;;18.25;65.58;98398.44;6243380;22;20013;-85
2022/08/31 06:26:34;;;;;;;3.97;3.33;;;;;;;18.34;66.18;98393.53;6243409;23;20024;-83
2022/08/31 06:29:05;;;;;;;3.83;3.53;;;;;;;18.43;67.56;98395.53;6217938;23;20016;-84
2022/08/31 06:31:41;;;;;;;4.30;3.90;;;;;;;18.41;66.13;98402.94;6217547;23;20016;-85
2022/08/31 06:34:08;;;;;;;3.88;3.58;;;;;;;18.46;65.56;98407.50;6217642;23;20016;-84
2022/08/31 06:36:34;;;;;;;4.75;4.10;;;;;;;18.42;65.22;98404.56;6244540;23;20019;-85
2022/08/31 06:39:02;;;;;;;4.30;3.40;;;;;;;18.41;65.53;98404.78;6243598;23;20020;-84
2022/08/31 06:41:36;;;;;;;3.95;3.65;;;;;;;18.51;65.13;98412.09;6244386;23;20027;-85
2022/08/31 06:44:06;;;;;;;5.57;5.07;;;;;;;18.39;64.63;98399.72;6217485;23;20020;-83
2022/08/31 06:46:35;;;;;;;4.25;3.50;;;;;;;18.61;65.55;98398.97;6243796;23;20027;-84
2022/08/31 06:49:04;;;;;;;4.60;3.40;;;;;;;18.76;64.08;98403.72;6244148;23;20016;-84
2022/08/31 06:51:36;;;;;;;3.97;3.67;;;;;;;18.75;64.92;98408.22;6244618;23;20044;-85
2022/08/31 06:54:09;;;;;;;4.00;3.58;;;;;;;18.84;64.29;98400.66;6216480;23;20074;-84
2022/08/31 06:57:13;;;;;;;3.80;3.50;;;;;;;19.01;64.66;98420.00;6225520;23;20649;-84
2022/08/31 06:59:58;;;;;;;4.00;3.63;;;;;;;18.99;64.28;98404.31;6243322;23;20018;-84
2022/08/31 07:02:25;;;;;;;4.78;4.00;;;;;;;18.99;63.81;98403.50;6215489;23;20336;-84
2022/08/31 07:04:51;;;;;;;3.72;3.35;;;;;;;19.04;63.49;98410.75;6243696;23;20012;-84
2022/08/31 07:07:18;;;;;;;3.72;3.22;;;;;;;19.16;64.02;98420.22;6243677;23;20090;-85
2022/08/31 07:09:45;;;;;;;3.70;3.35;;;;;;;19.04;63.75;98408.09;6215949;23;20020;-84
2022/08/31 07:12:12;;;;;;;4.22;3.83;;;;;;;19.03;62.81;98409.16;6216622;23;20092;-84
2022/08/31 07:14:38;;;;;;;3.42;3.13;;;;;;;19.16;64.43;98416.75;6216510;23;20506;-83
2022/08/31 07:17:07;;;;;;;3.90;3.50;;;;;;;19.20;64.27;98409.91;6243440;23;20018;-83
2022/08/31 07:19:33;;;;;;;5.07;3.88;;;;;;;19.15;63.31;98407.16;6243773;23;20354;-85
2022/08/31 07:22:05;;;;;;;3.38;3.08;;;;;;;19.38;64.72;98427.41;6191564;23;20523;-85
2022/08/31 07:24:34;;;;;;;3.40;3.10;;;;;;;19.33;62.41;98420.16;6243115;22;20020;-84
2022/08/31 07:27:08;;;;;;;3.25;2.95;;;;;;;19.35;63.67;98407.41;6242585;23;20021;-83
2022/08/31 07:29:41;;;;;;;5.38;4.88;;;;;;;19.10;62.55;98420.41;6217025;23;20495;-84
2022/08/31 07:32:11;;;;;;;3.63;3.08;;;;;;;19.30;63.25;98430.47;6243418;23;20059;-84
2022/08/31 07:34:39;;;;;;;3.70;3.38;;;;;;;19.41;63.22;98422.38;6218367;23;20012;-85
2022/08/31 07:42:43;;;;;;;3.80;3.00;;;;;;;19.77;60.67;98438.75;6243164;23;20027;-86
2022/08/31 07:45:23;;;;;;;3.30;2.90;;;;;;;19.82;62.29;98438.81;6216591;23;20315;-84
2022/08/31 07:47:58;;;;;;;2.72;2.53;;;;;;;19.85;62.71;98433.00;6244192;23;20327;-85
2022/08/31 07:50:26;;;;;;;4.20;3.05;;;;;;;19.78;63.18;98427.03;6216267;23;20020;-85
2022/08/31 07:52:56;;;;;;;3.58;3.22;;;;;;;19.85;61.98;98437.50;6186313;23;20046;-85
2022/08/31 07:55:38;;;;;;;3.10;2.80;;;;;;;19.92;61.63;98448.75;6219523;23;20019;-84
2022/08/31 07:58:11;;;;;;;3.80;3.03;;;;;;;19.94;62.75;98444.78;6243622;23;20026;-84
2022/08/31 08:00:38;;;;;;;3.05;2.83;;;;;;;20.03;61.33;98440.63;6217312;23;20028;-83
2022/08/31 08:03:11;;;;;;;3.85;3.38;;;;;;;19.98;60.65;98443.22;6243928;23;20020;-84
2022/08/31 08:05:40;;;;;;;3.35;3.00;;;;;;;20.09;61.57;98444.13;6243092;23;20051;-84
2022/08/31 08:08:10;;;;;;;2.80;2.60;;;;;;;20.19;60.73;98448.72;6217082;23;20016;-84
2022/08/31 08:10:44;;;;;;;2.88;2.67;;;;;;;20.27;59.58;98456.25;6243447;23;20027;-85
2022/08/31 08:13:18;;;;;;;2.97;2.67;;;;;;;20.36;60.76;98441.41;6243745;23;20020;-84
2022/08/31 08:15:47;;;;;;;2.65;2.45;;;;;;;20.52;59.37;98451.19;6243309;23;20012;-85
2022/08/31 08:18:14;;;;;;;3.97;3.58;;;;;;;20.48;59.39;98447.41;6242470;23;20034;-83
2022/08/31 08:20:41;;;;;;;3.00;2.72;;;;;;;20.60;59.12;98451.75;6216844;23;20369;-85
2022/08/31 08:23:16;;;;;;;3.15;2.85;;;;;;;20.69;59.41;98447.53;6242587;23;20062;-83
2022/08/31 08:25:56;;;;;;;3.13;2.78;;;;;;;20.73;57.61;98443.31;6241868;22;20022;-83
2022/08/31 08:28:27;;;;;;;3.03;2.72;;;;;;;20.78;58.75;98438.03;6216816;23;20051;-86
2022/08/31 08:31:15;;;;;;;3.30;3.00;;;;;;;20.99;56.59;98447.75;6242788;23;20024;-85
2022/08/31 08:33:43;;;;;;;4.65;3.95;;;;;;;20.79;56.40;98452.94;6242502;23;20456;-84
2022/08/31 08:36:11;;;;;;;3.78;3.25;;;;;;;20.80;57.52;98451.88;6215455;23;20016;-83
2022/08/31 08:38:42;;;;;;;3.67;3.38;;;;;;;20.92;57.73;98463.16;6242500;23;20043;-83
2022/08/31 08:41:18;;;;;;;4.10;3.22;;;;;;;21.01;57.46;98458.16;6191187;23;20031;-84
2022/08/31 08:43:52;;;;;;;3.10;2.80;;;;;;;21.21;59.72;98462.78;6243186;23;20023;-85
2022/08/31 08:46:42;;;;;;;3.40;3.10;;;;;;;21.10;56.63;98454.72;6216599;23;20022;-86
2022/08/31 08:49:48;;;;;;;3.90;3.58;;;;;;;21.14;55.92;98460.34;6242707;23;20437;-85
2022/08/31 08:52:36;;;;;;;2.63;2.43;;;;;;;21.38;56.34;98461.56;6218822;23;20094;-85
2022/08/31 08:55:17;;;;;;;2.90;2.70;;;;;;;21.52;55.51;98467.22;6217478;23;20251;-85
2022/08/31 08:57:48;;;;;;;3.15;2.65;;;;;;;21.58;55.49;98460.84;6217474;23;20020;-85
2022/08/31 09:00:23;;;;;;;4.97;3.70;;;;;;;21.42;55.39;98443.19;6216511;23;20059;-84
2022/08/31 09:03:10;;;;;;;3.97;2.45;;;;;;;21.70;55.97;98462.47;6217019;23;20129;-87
2022/08/31 09:06:02;;;;;;;3.20;2.90;;;;;;;21.77;54.67;98463.84;6243940;23;20016;-85
2022/08/31 09:09:07;;;;;;;3.05;2.83;;;;;;;21.77;55.94;98461.19;6218429;23;20040;-86
2022/08/31 09:12:50;;;;;;;2.60;2.40;;;;;;;22.00;56.15;98453.72;6244008;23;20020;-86
2022/08/31 09:15:39;;;;;;;2.95;2.30;;;;;;;22.19;55.24;98460.22;6181131;23;20021;-86
2022/08/31 09:18:29;;;;;;;2.92;2.63;;;;;;;22.21;55.10;98457.28;6181370;23;20053;-86
2022/08/31 09:21:16;;;;;;;3.47;2.60;;;;;;;22.32;54.48;98454.34;6237009;23;20433;-85
2022/08/31 09:23:48;;;;;;;2.70;2.50;;;;;;;22.30;53.93;98450.31;6216321;23;20091;-87
2022/08/31 09:26:17;;;;;;;4.25;3.42;;;;;;;22.36;53.66;98455.38;6217908;23;20356;-85
2022/08/31 09:28:51;;;;;;;4.13;3.10;;;;;;;22.20;52.93;98447.66;6243142;23;20099;-85
2022/08/31 09:31:36;;;;;;;3.42;3.13;;;;;;;22.22;52.55;98454.31;6216648;23;20258;-86
2022/08/31 09:34:12;;;;;;;4.25;3.20;;;;;;;22.21;52.54;98457.28;6193269;23;20066;-86
2022/08/31 09:36:39;;;;;;;3.78;3.40;;;;;;;22.06;52.30;98439.31;6218981;23;20013;-84
2022/08/31 09:39:21;;;;;;;2.90;2.70;;;;;;;22.34;52.57;98451.38;6246148;23;20026;-85
2022/08/31 09:41:49;;;;;;;3.40;3.10;;;;;;;22.46;53.32;98449.25;6218223;23;20023;-86
2022/08/31 09:44:38;;;;;;;3.53;3.00;;;;;;;22.38;51.33;98444.47;6217897;23;20023;-84
2022/08/31 09:47:41;;;;;;;3.13;2.83;;;;;;;22.65;52.39;98450.28;6218398;23;20130;-86
2022/08/31 09:50:09;;;;;;;2.90;2.70;;;;;;;22.71;51.74;98443.06;6245936;23;20070;-86
2022/08/31 09:55:43;;;;;;;2.83;2.63;;;;;;;23.07;51.42;98453.72;6246442;23;20107;-85
2022/08/31 09:58:32;;;;;;;3.17;2.70;;;;;;;23.22;51.02;98448.34;6246792;23;20107;-86
2022/08/31 10:01:32;;;;;;;2.78;2.50;;;;;;;23.35;49.79;98436.25;6246788;23;20035;-86
2022/08/31 10:04:25;;;;;;;2.70;2.50;;;;;;;23.55;49.14;98444.16;6244809;23;20031;-87
2022/08/31 10:07:43;;;;;;;2.78;2.58;;;;;;;23.47;48.33;98439.41;6223199;23;20031;-84
2022/08/31 10:10:31;;;;;;;3.03;2.83;;;;;;;23.53;48.18;98449.00;6244364;23;20099;-85
2022/08/31 10:13:16;;;;;;;2.83;2.63;;;;;;;23.75;49.08;98441.44;6244236;23;20047;-86
2022/08/31 10:15:58;;;;;;;3.00;2.80;;;;;;;23.86;47.93;98430.63;6194857;23;20016;-84
2022/08/31 10:18:38;;;;;;;3.22;3.03;;;;;;;24.09;48.15;98437.97;6219787;23;20027;-84
2022/08/31 10:21:22;;;;;;;3.13;2.88;;;;;;;24.11;46.60;98429.66;6219375;23;20050;-85
2022/08/31 10:24:27;;;;;;;2.88;2.67;;;;;;;24.27;48.31;98442.66;6217585;23;20029;-89
2022/08/31 10:27:17;;;;;;;3.60;3.17;;;;;;;24.03;47.01;98433.75;6217283;23;20358;-85
2022/08/31 10:30:01;;;;;;;2.70;2.50;;;;;;;24.44;47.34;98441.50;6218391;23;20031;-88
2022/08/31 10:32:36;;;;;;;4.18;2.72;;;;;;;24.54;46.08;98444.09;6220361;23;20012;-86
2022/08/31 10:35:21;;;;;;;3.40;2.90;;;;;;;24.46;45.94;98432.09;6246411;23;20022;-87
2022/08/31 10:38:07;;;;;;;4.47;3.53;;;;;;;24.36;46.85;98437.56;6244014;23;20013;-86
2022/08/31 10:40:59;;;;;;;3.60;3.30;;;;;;;24.14;47.24;98435.28;6218823;23;20030;-88
2022/08/31 10:43:42;;;;;;;3.28;2.97;;;;;;;24.05;47.44;98442.31;6192541;23;20024;-89
2022/08/31 10:46:09;;;;;;;2.85;2.53;;;;;;;24.41;49.14;98436.69;6218334;23;20019;-87
2022/08/31 10:48:50;;;;;;;3.05;2.85;;;;;;;24.58;46.22;98442.44;6244151;23;20024;-84
2022/08/31 10:51:27;;;;;;;3.30;2.83;;;;;;;24.57;45.85;98440.84;6193509;23;20476;-86
2022/08/31 10:54:20;;;;;;;3.30;3.00;;;;;;;24.43;45.97;98427.31;6245682;23;20323;-86
2022/08/31 10:57:42;;;;;;;2.70;2.50;;;;;;;24.52;46.20;98438.19;6245853;23;20075;-86
2022/08/31 11:01:02;;;;;;;2.95;2.72;;;;;;;24.49;47.44;98434.22;6245587;23;20516;-86
2022/08/31 11:04:20;;;;;;;3.58;3.17;;;;;;;24.29;46.96;98432.50;6244528;23;20022;-86
2022/08/31 11:07:10;;;;;;;2.63;2.42;;;;;;;24.34;47.46;98428.16;6245246;23;20058;-87
2022/08/31 11:09:55;;;;;;;;;;;;;;;24.43;46.29;98427.31;6246662;23;20035;-85
2022/08/31 11:12:41;;;;;;;3.15;2.70;;;;;;;24.48;46.10;98413.06;6246228;23;19993;-86
2022/08/31 11:15:30;;;;;;;2.88;2.53;;;;;;;24.67;47.02;98430.03;6246059;23;20074;-85
2022/08/31 11:18:55;;;;;;;2.40;2.20;;;;;;;24.85;46.65;98435.75;6247332;23;20438;-86
2022/08/31 11:22:03;;;;;;;2.65;2.45;;;;;;;24.78;45.18;98438.78;6219381;23;20119;-86
2022/08/31 11:24:49;;;;;;;2.92;2.72;;;;;;;24.55;46.66;98433.09;6218907;23;20094;-86
2022/08/31 11:27:18;;;;;;;2.67;2.28;;;;;;;24.77;46.05;98437.16;6247365;23;20009;-87
2022/08/31 11:30:01;;;;;;;3.40;3.10;;;;;;;24.48;46.60;98421.91;6217656;23;20096;-89
2022/08/31 11:32:35;;;;;;;2.83;2.63;;;;;;;24.56;45.71;98431.19;6218614;23;20116;-87
2022/08/31 11:35:09;;;;;;;3.50;2.88;;;;;;;24.57;46.32;98427.44;6220496;23;20027;-86
2022/08/31 11:37:51;;;;;;;3.25;2.40;;;;;;;24.77;46.66;98431.78;6219853;23;20020;-86
2022/08/31 11:40:57;;;;;;;2.78;2.58;;;;;;;24.80;45.92;98426.66;6220832;23;20090;-87
2022/08/31 11:43:30;;;;;;;2.88;2.50;;;;;;;24.73;44.76;98420.84;6217159;23;20082;-88
2022/08/31 11:46:23;;;;;;;2.78;2.58;;;;;;;24.75;45.57;98418.66;6219029;23;20540;-89
2022/08/31 11:48:52;;;;;;;2.97;2.72;;;;;;;24.63;45.63;98425.50;6246847;23;20039;-86
2022/08/31 11:51:45;;;;;;;4.70;2.85;;;;;;;24.42;46.06;98424.91;6218480;23;20070;-86
2022/08/31 11:54:25;;;;;;;3.78;2.40;;;;;;;24.46;45.69;98415.19;6217893;23;20016;-86
2022/08/31 11:56:55;;;;;;;2.80;2.60;;;;;;;24.40;44.48;98419.00;6219433;23;20035;-87
2022/08/31 11:59:32;;;;;;;;;;;;;;;24.43;46.46;98421.13;6248628;23;20103;-87
2022/08/31 12:02:19;;;;;;;2.42;2.30;;;;;;;24.37;46.67;98422.28;6194791;23;19916;-86
2022/08/31 12:04:52;;;;;;;2.30;2.10;;;;;;;24.39;46.09;98425.47;6245166;23;20016;-87
2022/08/31 12:07:34;;;;;;;2.47;2.28;;;;;;;24.38;46.05;98434.59;6219783;23;20055;-87
2022/08/31 12:10:32;;;;;;;2.50;2.30;;;;;;;24.07;46.03;98421.41;6244351;23;20059;-88
2022/08/31 12:13:50;;;;;;;2.70;2.47;;;;;;;24.04;46.98;98427.31;6246527;23;20016;-87
2022/08/31 12:17:20;;;;;;;2.92;2.50;;;;;;;23.69;46.33;98428.31;6073854;23;20072;-84
2022/08/31 12:20:06;;;;;;;3.20;2.90;;;;;;;23.53;46.54;98424.13;6082623;23;20029;-84
2022/08/31 12:26:03;;;;;;;2.90;2.70;;;;;;;23.50;47.13;98430.81;6245433;22;20008;-87
2022/08/31 12:29:07;;;;;;;2.60;2.20;;;;;;;23.49;48.52;98429.22;6220297;23;20039;-84